中部METAR電文


佐渡(RJSD)
10/07 23:00
METAR RJSD 071400Z AUTO 02003KT 310V080 9999 NSC 15/10 Q1024 RMK
A3026=

新潟(RJSN)
07/19 17:00
METAR RJSN 190800Z 36003KT 9999 FEW035 SCT090 BKN160 29/24 Q1007 RMK
1CU035 3AC090 6AC160 A2976=

能登(RJNW)
07/19 17:00
METAR RJNW 190800Z 29004KT 240V340 9999 FEW030 SCT070 BKN100 26/22
Q1008 RMK 1CU030 3AC070 5AC100 A2979=

富山(RJNT)
07/19 17:00
METAR RJNT 190800Z VRB04KT 9999 FEW020 SCT080 BKN/// 30/25 Q1007 RMK
1CU020 3AC080 A2975=

小松(RJNK)
07/19 17:39
RJNK 190839Z 25022G33KT 1000 R24/0900VP1800U +TSRA VV008 24/24
Q1009 RMK A2981 R1200 VIS SW-NW 800M MOD TS OHD RI++=

福井(RJNF)
07/19 16:00
RJNF 190700Z 20010KT 9999 BKN050 35/24 Q1007 RMK A2974=

舞鶴(M-RH)
07/19 17:00
METAR M-RH 190800Z NIL=

舞鶴(RJBM)
07/19 17:04
RJBM 190804Z 02010KT 9999 FEW020 BKN035 BKN/// 30/24 Q1008 RMK
2CU020 6CU035 A2977=

松本(RJAF)
07/19 17:00
METAR RJAF 190800Z 17012KT 9999 FEW040 BKN/// 29/20 Q1012 RMK 1CU040
A2990=

滝ヶ原(RJAT)
07/19 17:00
METAR RJAT 190800Z 19006KT 150V240 4000 -SHRA BR SCT000 SCT008
BKN010 26/24 Q1014 RMK 3ST000 4ST008 5CU010 A2995=

静浜(RJNY)
07/19 17:00
METAR RJNY 190800Z 24014KT 210V270 9999 FEW020 BKN230 31/26 Q1009
RMK 1CU020 A2982=

静岡(RJNS)
07/19 17:00
METAR RJNS 190800Z 24010KT 190V280 9999 FEW010 SCT013 BKN/// 29/26
Q1010 RMK 1CU010 3CU013 A2984=

浜松(RJNH)
07/19 17:00
METAR RJNH 190800Z 24013KT 9999 FEW010 SCT012 BKN015 29/26 Q1010 RMK
1CU010 3CU012 5CU015 A2983=

中部国際(RJGG)
07/19 17:30
METAR RJGG 190830Z 14006KT 9999 FEW020 FEW030CB SCT/// 32/26 Q1008
NOSIG RMK 1CU020 1CB030 A2979 CB 60KM NE=

名古屋(RJNA)
07/19 17:00
METAR RJNA 190800Z 24009KT 210V290 9999 -SHRA FEW015 FEW030CB BKN040
BKN100 32/25 Q1009 RMK 1CU015 1CB030 5CU040 5AC100 A2980
CB 15KM NE MOV NE=

岐阜(RJNG)
07/19 17:44
RJNG 190844Z VRB02KT 9999 FEW025 SCT180 BKN230 31/26 Q1009 RMK
1CU025 3AC180 A2981=
Copyright(c) 2014 International Meteorological & Oceanographic Consultants Co,.Ltd. All Rights Reserved. Design by http://f-tpl.com